Time;durP1;ratioP1;P1;durP2;ratioP2;P2;SDS_P1;SDS_P2;PMS_P1;PMS_P2;Temp;Humidity;BMP_temperature;BMP_pressure;BME280_temperature;BME280_humidity;BME280_pressure;Samples;Min_cycle;Max_cycle;Signal;HPM_P1;HPM_P2
2022/03/25 00:01:39;;;;;;;34.55;20.73;;;12.90;62.80;;;;;;5056765;28;20057;-85
2022/03/25 00:04:04;;;;;;;33.63;19.77;;;12.80;63.20;;;;;;5072958;28;20385;-85
2022/03/25 00:06:31;;;;;;;40.55;20.95;;;12.80;62.40;;;;;;5074241;28;20032;-85
2022/03/25 00:08:57;;;;;;;34.70;21.52;;;12.70;62.10;;;;;;5091161;28;20056;-85
2022/03/25 00:11:22;;;;;;;35.03;21.90;;;12.60;61.90;;;;;;5075479;28;20051;-85
2022/03/25 00:13:48;;;;;;;35.13;20.23;;;12.60;62.30;;;;;;5074133;28;20023;-85
2022/03/25 00:16:14;;;;;;;37.75;21.08;;;12.50;62.90;;;;;;5057092;28;20036;-85
2022/03/25 00:18:39;;;;;;;33.58;22.05;;;12.50;63.20;;;;;;5056792;28;20048;-85
2022/03/25 00:21:05;;;;;;;38.20;23.02;;;12.50;63.70;;;;;;5076598;28;20023;-85
2022/03/25 00:23:31;;;;;;;39.92;22.42;;;12.40;64.00;;;;;;5040976;28;20453;-85
2022/03/25 00:25:57;;;;;;;35.03;21.60;;;12.40;63.80;;;;;;5057473;28;20033;-85
2022/03/25 00:28:23;;;;;;;34.72;22.50;;;12.30;64.20;;;;;;5073797;28;20484;-85
2022/03/25 00:30:52;;;;;;;44.20;23.00;;;12.30;64.20;;;;;;5057344;28;20025;-85
2022/03/25 00:33:19;;;;;;;40.13;23.02;;;12.20;63.70;;;;;;5073894;28;20028;-85
2022/03/25 00:35:45;;;;;;;36.95;23.13;;;12.20;64.30;;;;;;5057249;28;20390;-85
2022/03/25 00:38:12;;;;;;;39.10;23.10;;;12.10;64.10;;;;;;5057080;28;20394;-85
2022/03/25 00:40:37;;;;;;;36.03;22.48;;;12.10;64.10;;;;;;5057271;28;20033;-85
2022/03/25 00:43:03;;;;;;;39.05;22.70;;;12.10;64.30;;;;;;5040588;28;20054;-85
2022/03/25 00:45:29;;;;;;;40.78;23.85;;;12.00;64.70;;;;;;5073414;28;20535;-85
2022/03/25 00:47:59;;;;;;;40.63;24.30;;;12.00;64.90;;;;;;5056896;28;20116;-85
2022/03/25 00:50:26;;;;;;;40.63;23.27;;;11.90;64.90;;;;;;5056962;28;20021;-85
2022/03/25 00:52:51;;;;;;;39.42;24.17;;;11.90;65.30;;;;;;5056976;28;20020;-85
2022/03/25 00:55:18;;;;;;;39.75;24.20;;;11.80;65.50;;;;;;5056953;28;20551;-85
2022/03/25 00:57:44;;;;;;;39.00;23.55;;;11.80;65.60;;;;;;5056858;28;20024;-85
2022/03/25 01:00:10;;;;;;;37.85;24.70;;;11.70;65.50;;;;;;5056537;28;20029;-85
2022/03/25 01:02:36;;;;;;;43.88;23.92;;;11.70;65.70;;;;;;5074238;28;20060;-85
2022/03/25 01:05:02;;;;;;;39.55;23.85;;;11.70;65.90;;;;;;5056424;28;20028;-85
2022/03/25 01:07:28;;;;;;;39.65;25.35;;;11.60;66.00;;;;;;5056524;28;20028;-85
2022/03/25 01:09:53;;;;;;;40.60;26.40;;;11.60;66.10;;;;;;5056497;28;20428;-85
2022/03/25 01:12:21;;;;;;;45.70;26.73;;;11.60;66.60;;;;;;5056372;28;20028;-85
2022/03/25 01:14:47;;;;;;;43.30;26.58;;;11.50;66.30;;;;;;5056689;28;20025;-85
2022/03/25 01:17:13;;;;;;;43.40;26.13;;;11.50;66.30;;;;;;5039969;28;20028;-85
2022/03/25 01:19:41;;;;;;;41.75;25.25;;;11.50;66.20;;;;;;5056383;28;20466;-85
2022/03/25 01:22:07;;;;;;;41.95;24.85;;;11.40;65.60;;;;;;5056332;28;20055;-85
2022/03/25 01:24:33;;;;;;;40.42;25.38;;;11.40;66.00;;;;;;5056316;28;20020;-85
2022/03/25 01:26:59;;;;;;;42.78;25.05;;;11.30;66.10;;;;;;5073008;28;20025;-85
2022/03/25 01:29:25;;;;;;;40.58;25.73;;;11.30;65.40;;;;;;5055885;28;20442;-85
2022/03/25 01:31:51;;;;;;;49.17;26.27;;;11.30;65.50;;;;;;5072574;28;20074;-85
2022/03/25 01:34:17;;;;;;;46.30;27.63;;;11.20;65.70;;;;;;5055948;28;20033;-85
2022/03/25 01:36:42;;;;;;;47.15;27.20;;;11.20;66.50;;;;;;5073845;28;20095;-85
2022/03/25 01:39:08;;;;;;;44.45;27.75;;;11.10;66.60;;;;;;5039427;28;20032;-85
2022/03/25 01:41:34;;;;;;;44.33;29.48;;;11.10;66.90;;;;;;5055916;28;20029;-85
2022/03/25 01:44:01;;;;;;;43.53;28.50;;;11.10;66.90;;;;;;5072391;28;20421;-85
2022/03/25 01:46:27;;;;;;;41.88;28.27;;;11.00;66.90;;;;;;5039349;28;20098;-85
2022/03/25 01:48:54;;;;;;;50.08;28.85;;;11.00;67.20;;;;;;5072391;28;20018;-85
2022/03/25 01:51:32;;;;;;;46.40;28.35;;;10.90;66.60;;;;;;5055873;28;20446;-85
2022/03/25 01:54:17;;;;;;;45.83;29.27;;;10.90;66.80;;;;;;5072607;28;20021;-85
2022/03/25 01:56:43;;;;;;;46.28;29.73;;;10.80;67.20;;;;;;5072298;28;20012;-85
2022/03/25 01:59:10;;;;;;;46.45;29.33;;;10.80;67.50;;;;;;5055424;28;20020;-85
2022/03/25 02:01:36;;;;;;;51.72;30.40;;;10.80;68.00;;;;;;5055387;28;20557;-85
2022/03/25 02:04:02;;;;;;;52.03;31.08;;;10.70;67.90;;;;;;5055595;28;20390;-85
2022/03/25 02:06:27;;;;;;;46.63;30.15;;;10.70;68.00;;;;;;5055495;28;20028;-85
2022/03/25 02:08:53;;;;;;;49.55;30.55;;;10.60;68.20;;;;;;5055387;28;20131;-85
2022/03/25 02:11:19;;;;;;;45.42;29.17;;;10.60;68.40;;;;;;5039058;28;20036;-85
2022/03/25 02:13:45;;;;;;;46.75;29.77;;;10.50;68.00;;;;;;5038909;28;20023;-85
2022/03/25 02:16:11;;;;;;;44.97;29.80;;;10.50;68.40;;;;;;5073365;28;20089;-85
2022/03/25 02:18:37;;;;;;;48.70;29.10;;;10.50;68.80;;;;;;5055343;28;20127;-85
2022/03/25 02:21:03;;;;;;;45.22;30.45;;;10.40;69.00;;;;;;5055286;28;20032;-85
2022/03/25 02:23:45;;;;;;;49.63;31.10;;;10.40;68.50;;;;;;5055392;28;20032;-85
2022/03/25 02:26:11;;;;;;;51.15;32.33;;;10.40;68.50;;;;;;5055148;28;20111;-85
2022/03/25 02:28:36;;;;;;;50.42;31.55;;;10.30;68.40;;;;;;5055242;28;20117;-85
2022/03/25 02:31:02;;;;;;;50.28;30.88;;;10.30;68.90;;;;;;5038604;28;20032;-85
2022/03/25 02:33:28;;;;;;;50.45;30.98;;;10.20;68.90;;;;;;5055227;28;20036;-85
2022/03/25 02:35:53;;;;;;;47.88;30.13;;;10.20;69.00;;;;;;5038586;28;20107;-85
2022/03/25 02:38:21;;;;;;;61.67;31.70;;;10.10;69.90;;;;;;5055243;28;20029;-85
2022/03/25 02:40:47;;;;;;;51.85;31.45;;;10.10;69.70;;;;;;5073528;28;20028;-85
2022/03/25 02:43:13;;;;;;;47.70;30.40;;;10.10;69.90;;;;;;5059281;28;20031;-85
2022/03/25 02:45:40;;;;;;;53.30;32.42;;;10.10;70.00;;;;;;5077092;28;20016;-85
2022/03/25 02:48:07;;;;;;;52.80;32.08;;;10.00;70.20;;;;;;5042629;28;20021;-85
2022/03/25 02:50:33;;;;;;;51.25;31.63;;;10.00;70.00;;;;;;5059010;28;20048;-85
2022/03/25 02:52:59;;;;;;;49.83;32.47;;;9.90;70.00;;;;;;5059126;28;20035;-85
2022/03/25 02:55:25;;;;;;;54.08;33.47;;;9.90;70.00;;;;;;5075682;28;20021;-85
2022/03/25 02:57:52;;;;;;;53.30;31.60;;;9.90;70.10;;;;;;5058939;28;20035;-85
2022/03/25 03:00:19;;;;;;;51.28;31.52;;;9.80;70.40;;;;;;5075582;28;20070;-85
2022/03/25 03:02:46;;;;;;;54.13;30.77;;;9.80;70.30;;;;;;5058652;28;20147;-85
2022/03/25 03:05:12;;;;;;;53.90;32.60;;;9.80;70.50;;;;;;5075454;28;20073;-85
2022/03/25 03:07:38;;;;;;;51.13;31.05;;;9.70;70.70;;;;;;5058695;28;20037;-84
2022/03/25 03:10:42;;;;;;;49.22;30.52;;;9.70;70.90;;;;;;5057980;28;20029;-85
2022/03/25 03:13:09;;;;;;;54.92;30.15;;;9.70;71.40;;;;;;5059027;28;20362;-85
2022/03/25 03:15:36;;;;;;;52.00;30.80;;;9.60;71.10;;;;;;5075322;28;20016;-85
2022/03/25 03:18:02;;;;;;;51.75;31.50;;;9.60;71.20;;;;;;5058441;28;20119;-85
2022/03/25 03:20:28;;;;;;;52.35;32.33;;;9.50;71.60;;;;;;5058679;28;20025;-85
2022/03/25 03:22:56;;;;;;;53.38;32.53;;;9.50;72.10;;;;;;5062752;28;20024;-85
2022/03/25 03:25:22;;;;;;;48.17;30.80;;;9.50;72.40;;;;;;5074170;28;20020;-85
2022/03/25 03:27:48;;;;;;;53.85;32.55;;;9.50;72.40;;;;;;5058651;28;20020;-85
2022/03/25 03:30:14;;;;;;;52.67;32.72;;;9.40;72.70;;;;;;5041521;28;20040;-85
2022/03/25 03:32:40;;;;;;;57.03;33.25;;;9.40;72.50;;;;;;5025417;28;20355;-85
2022/03/25 03:35:07;;;;;;;50.78;31.73;;;9.40;72.60;;;;;;5058307;28;20032;-85
2022/03/25 03:37:43;;;;;;;56.92;33.58;;;9.40;72.90;;;;;;5058024;28;20028;-85
2022/03/25 03:40:10;;;;;;;56.85;33.90;;;9.30;73.00;;;;;;5058261;28;20039;-85
2022/03/25 03:42:37;;;;;;;58.80;34.42;;;9.30;73.10;;;;;;5041788;28;20462;-85
2022/03/25 03:45:05;;;;;;;59.85;36.97;;;9.30;73.30;;;;;;5041354;28;20040;-85
2022/03/25 03:47:30;;;;;;;57.75;35.65;;;9.30;73.30;;;;;;5076004;28;20359;-85
2022/03/25 03:49:56;;;;;;;54.60;36.30;;;9.20;73.30;;;;;;5025253;28;20046;-85
2022/03/25 03:52:23;;;;;;;56.22;37.03;;;9.20;73.70;;;;;;5041473;28;20386;-85
2022/03/25 03:54:49;;;;;;;61.70;37.65;;;9.20;73.90;;;;;;5025397;28;20025;-85
2022/03/25 03:58:10;;;;;;;62.30;38.38;;;9.20;74.20;;;;;;5074538;28;20456;-85
2022/03/25 04:00:37;;;;;;;68.38;38.47;;;9.20;74.70;;;;;;5077355;28;20115;-85
2022/03/25 04:03:03;;;;;;;69.03;40.33;;;9.20;74.80;;;;;;5061072;28;20052;-85
2022/03/25 04:05:28;;;;;;;66.25;39.30;;;9.20;75.00;;;;;;5077971;28;20028;-85
2022/03/25 04:07:54;;;;;;;61.80;39.65;;;9.10;75.20;;;;;;5060898;28;20021;-85
2022/03/25 04:10:20;;;;;;;65.97;40.42;;;9.10;75.40;;;;;;5061058;28;20473;-85
2022/03/25 04:12:46;;;;;;;63.47;39.65;;;9.10;75.30;;;;;;5077667;28;20535;-85
2022/03/25 04:15:13;;;;;;;59.25;39.38;;;9.10;75.40;;;;;;5060832;28;20355;-85
2022/03/25 04:17:40;;;;;;;64.53;41.90;;;9.10;75.40;;;;;;5077635;28;20024;-85
2022/03/25 04:20:08;;;;;;;68.28;41.63;;;9.10;75.60;;;;;;5060773;28;20031;-85
2022/03/25 04:22:34;;;;;;;64.63;40.20;;;9.10;75.90;;;;;;5044408;28;20388;-85
2022/03/25 04:25:00;;;;;;;66.45;41.03;;;9.00;75.90;;;;;;5060586;28;20127;-85
2022/03/25 04:27:26;;;;;;;65.10;41.97;;;9.00;76.20;;;;;;5077533;28;20024;-85
2022/03/25 04:29:52;;;;;;;66.07;42.30;;;9.00;76.20;;;;;;5060866;28;20359;-85
2022/03/25 04:32:17;;;;;;;66.65;42.30;;;8.90;76.10;;;;;;5095494;28;20077;-85
2022/03/25 04:34:43;;;;;;;65.50;42.55;;;8.90;76.30;;;;;;5060622;28;20540;-85
2022/03/25 04:37:09;;;;;;;75.40;43.78;;;8.90;76.20;;;;;;5043992;28;20473;-85
2022/03/25 04:39:35;;;;;;;69.80;43.38;;;8.90;76.40;;;;;;5077344;28;20386;-85
2022/03/25 04:42:01;;;;;;;69.18;43.03;;;8.80;76.50;;;;;;5077329;28;20496;-85
2022/03/25 04:44:27;;;;;;;66.45;41.33;;;8.80;76.80;;;;;;5076916;28;20024;-85
2022/03/25 04:46:54;;;;;;;69.45;42.53;;;8.80;76.80;;;;;;5043582;28;20359;-85
2022/03/25 04:49:19;;;;;;;70.50;43.33;;;8.80;76.90;;;;;;5060615;28;20028;-85
2022/03/25 04:51:45;;;;;;;67.75;42.95;;;8.70;77.00;;;;;;5060420;28;20085;-85
2022/03/25 04:54:20;;;;;;;67.05;42.20;;;8.70;77.00;;;;;;5060458;28;20020;-85
2022/03/25 04:56:46;;;;;;;72.47;43.97;;;8.70;77.30;;;;;;5043554;28;20031;-85
2022/03/25 04:59:11;;;;;;;72.88;43.72;;;8.60;77.40;;;;;;5043500;28;20028;-85
2022/03/25 05:01:37;;;;;;;68.80;43.25;;;8.60;77.50;;;;;;5089735;23;20400;-85
2022/03/25 05:04:04;;;;;;;74.05;44.20;;;8.60;77.60;;;;;;5075865;28;20118;-85
2022/03/25 05:06:32;;;;;;;67.38;42.72;;;8.60;78.60;;;;;;5076354;28;20029;-85
2022/03/25 05:08:59;;;;;;;72.53;45.55;;;8.60;78.10;;;;;;5059841;28;20070;-85
2022/03/25 05:11:24;;;;;;;69.10;42.80;;;8.50;78.30;;;;;;5060065;28;20419;-85
2022/03/25 05:13:51;;;;;;;77.07;45.78;;;8.50;78.50;;;;;;5076463;28;20070;-86
2022/03/25 05:16:16;;;;;;;77.05;45.55;;;8.50;78.50;;;;;;5059950;28;20034;-85
2022/03/25 05:18:42;;;;;;;72.75;45.42;;;8.50;78.60;;;;;;5059723;28;20032;-85
2022/03/25 05:21:08;;;;;;;72.30;44.38;;;8.40;78.50;;;;;;5060081;28;20126;-85
2022/03/25 05:23:35;;;;;;;74.40;46.03;;;8.40;78.70;;;;;;5094224;28;20055;-85
2022/03/25 05:26:00;;;;;;;78.63;45.80;;;8.40;79.00;;;;;;5076349;28;20529;-85
2022/03/25 05:28:26;;;;;;;72.60;44.67;;;8.40;79.20;;;;;;5059556;28;20056;-85
2022/03/25 05:30:52;;;;;;;68.18;44.20;;;8.40;79.40;;;;;;5076091;28;20028;-85
2022/03/25 05:33:18;;;;;;;74.70;44.47;;;8.30;79.50;;;;;;5076075;28;20042;-85
2022/03/25 05:35:43;;;;;;;76.30;45.38;;;8.30;79.90;;;;;;5059412;28;20024;-85
2022/03/25 05:38:10;;;;;;;70.25;43.90;;;8.30;80.20;;;;;;5092831;28;20031;-86
2022/03/25 05:40:35;;;;;;;78.07;46.30;;;8.20;80.50;;;;;;5059505;28;20028;-85
2022/03/25 05:43:01;;;;;;;76.28;46.72;;;8.30;80.70;;;;;;5092838;28;20477;-85
2022/03/25 05:45:27;;;;;;;75.80;45.17;;;8.30;80.90;;;;;;5075815;28;20059;-85
2022/03/25 05:47:52;;;;;;;75.07;45.38;;;8.20;81.00;;;;;;5092799;28;20023;-86
2022/03/25 05:50:19;;;;;;;78.63;47.88;;;8.20;81.10;;;;;;5059221;28;20538;-86
2022/03/25 05:52:45;;;;;;;77.40;45.83;;;8.20;81.20;;;;;;5094016;28;20024;-86
2022/03/25 05:55:13;;;;;;;80.38;46.70;;;8.20;81.50;;;;;;5075452;28;20521;-85
2022/03/25 05:57:39;;;;;;;81.30;46.38;;;8.10;81.40;;;;;;5075997;28;20092;-86
2022/03/25 06:00:08;;;;;;;80.32;48.97;;;8.20;81.80;;;;;;5071585;28;20043;-85
2022/03/25 06:02:35;;;;;;;79.70;48.85;;;8.10;82.00;;;;;;5072592;28;20143;-85
2022/03/25 06:05:00;;;;;;;72.25;45.25;;;8.10;82.30;;;;;;5089217;28;20020;-85
2022/03/25 06:07:33;;;;;;;69.32;44.72;;;8.10;82.60;;;;;;5073472;28;20107;-85
2022/03/25 06:09:59;;;;;;;72.88;44.17;;;8.10;82.80;;;;;;5073393;28;20044;-85
2022/03/25 06:12:24;;;;;;;81.32;47.63;;;8.10;83.30;;;;;;5072454;28;20470;-85
2022/03/25 06:14:50;;;;;;;75.38;47.60;;;8.10;83.70;;;;;;5072034;28;20382;-85
2022/03/25 06:17:16;;;;;;;80.75;47.88;;;8.10;83.70;;;;;;5072444;28;20052;-85
2022/03/25 06:19:41;;;;;;;81.75;47.20;;;8.10;84.00;;;;;;5072294;28;20024;-85
2022/03/25 06:22:07;;;;;;;82.53;48.55;;;8.10;84.10;;;;;;5072050;28;20074;-85
2022/03/25 06:24:32;;;;;;;81.05;48.90;;;8.10;84.50;;;;;;5071889;28;20025;-85
2022/03/25 06:26:58;;;;;;;78.20;46.22;;;8.10;84.70;;;;;;5072048;28;20024;-85
2022/03/25 06:29:24;;;;;;;80.95;47.53;;;8.10;85.00;;;;;;5088849;28;20020;-85
2022/03/25 06:31:50;;;;;;;76.85;47.10;;;8.10;85.30;;;;;;5071801;28;20032;-85
2022/03/25 06:34:20;;;;;;;77.78;48.22;;;8.10;85.50;;;;;;5069957;28;20374;-85
2022/03/25 06:36:49;;;;;;;78.55;49.33;;;8.10;85.80;;;;;;5071126;28;20027;-85
2022/03/25 06:39:27;;;;;;;73.18;46.85;;;8.20;86.10;;;;;;5071232;28;20501;-85
2022/03/25 06:41:53;;;;;;;77.32;46.90;;;8.20;86.20;;;;;;5086730;28;20470;-85
2022/03/25 06:44:19;;;;;;;80.20;49.55;;;8.20;86.60;;;;;;5070099;28;20032;-85
2022/03/25 06:46:45;;;;;;;75.28;48.80;;;8.20;86.90;;;;;;5071586;28;20071;-85
2022/03/25 06:49:11;;;;;;;78.88;48.53;;;8.20;87.00;;;;;;5088553;28;20378;-85
2022/03/25 06:51:49;;;;;;;83.10;49.50;;;8.20;86.90;;;;;;5071890;28;20119;-85
2022/03/25 06:54:15;;;;;;;78.38;48.75;;;8.30;87.20;;;;;;5088558;28;20468;-85
2022/03/25 06:56:41;;;;;;;85.93;48.25;;;8.30;87.10;;;;;;5088525;28;20510;-85
2022/03/25 06:59:09;;;;;;;83.22;48.47;;;8.30;87.40;;;;;;5071858;28;20067;-85
2022/03/25 07:01:35;;;;;;;77.80;47.95;;;8.30;87.60;;;;;;5088516;28;20041;-84
2022/03/25 07:04:03;;;;;;;77.90;48.92;;;8.40;87.70;;;;;;5071743;28;20028;-85
2022/03/25 07:06:31;;;;;;;73.97;46.78;;;8.40;87.60;;;;;;5071886;28;20035;-85
2022/03/25 07:09:00;;;;;;;70.07;46.15;;;8.40;87.60;;;;;;5071643;28;20485;-85
2022/03/25 07:11:26;;;;;;;75.95;47.30;;;8.50;87.60;;;;;;5088176;28;20025;-85
2022/03/25 07:13:52;;;;;;;70.38;46.53;;;8.50;87.60;;;;;;5071576;28;20025;-85
2022/03/25 07:16:19;;;;;;;73.10;47.42;;;8.60;87.70;;;;;;5071560;28;20119;-85
2022/03/25 07:18:44;;;;;;;74.88;48.33;;;8.60;87.80;;;;;;5071635;28;20388;-85
2022/03/25 07:21:11;;;;;;;69.22;45.10;;;8.70;87.90;;;;;;5071484;28;20028;-85
2022/03/25 07:23:36;;;;;;;69.18;44.72;;;8.70;87.80;;;;;;5071581;28;20024;-85
2022/03/25 07:26:04;;;;;;;70.72;44.63;;;8.80;87.70;;;;;;5054732;28;20048;-85
2022/03/25 07:28:30;;;;;;;73.57;44.75;;;8.80;87.60;;;;;;5056844;28;20397;-85
2022/03/25 07:30:56;;;;;;;69.53;44.33;;;8.90;87.60;;;;;;5057115;28;20029;-85
2022/03/25 07:33:21;;;;;;;65.75;44.13;;;8.90;87.60;;;;;;5058266;28;20020;-85
2022/03/25 07:35:47;;;;;;;66.05;43.72;;;9.00;87.50;;;;;;5074958;28;20040;-85
2022/03/25 07:38:13;;;;;;;68.50;44.40;;;9.00;87.40;;;;;;5058184;28;20116;-85
2022/03/25 07:40:38;;;;;;;65.15;44.63;;;9.20;87.60;;;;;;5058179;28;20123;-85
2022/03/25 07:43:05;;;;;;;76.05;46.92;;;9.20;87.40;;;;;;5074744;28;20056;-85
2022/03/25 07:45:31;;;;;;;66.00;45.78;;;9.20;87.30;;;;;;5074713;28;20024;-85
2022/03/25 07:47:57;;;;;;;61.42;43.28;;;9.30;87.20;;;;;;5057815;28;20031;-85
2022/03/25 07:50:23;;;;;;;67.13;43.78;;;9.40;87.30;;;;;;5075307;28;20032;-85
2022/03/25 07:52:51;;;;;;;62.17;42.58;;;9.40;87.20;;;;;;5072656;28;20021;-84
2022/03/25 07:55:35;;;;;;;60.80;42.55;;;9.50;87.10;;;;;;5073414;28;20481;-85
2022/03/25 07:58:00;;;;;;;62.08;41.28;;;9.50;86.90;;;;;;5057708;28;20056;-84
2022/03/25 08:00:26;;;;;;;64.50;41.92;;;9.60;86.70;;;;;;5057724;28;20385;-85
2022/03/25 08:02:55;;;;;;;60.45;40.13;;;9.60;86.50;;;;;;5075130;28;20421;-84
2022/03/25 08:05:23;;;;;;;63.63;43.85;;;9.70;86.30;;;;;;5075488;28;20037;-85
2022/03/25 08:07:54;;;;;;;59.88;41.65;;;9.80;85.90;;;;;;5074444;28;20028;-85
2022/03/25 08:10:30;;;;;;;66.10;43.15;;;9.80;85.70;;;;;;5074268;28;20363;-84
2022/03/25 08:12:56;;;;;;;64.47;42.15;;;9.90;85.60;;;;;;5074053;28;20024;-84
2022/03/25 08:15:24;;;;;;;62.25;40.90;;;10.00;85.40;;;;;;5073551;28;20474;-85
2022/03/25 08:18:06;;;;;;;54.78;38.65;;;10.10;84.90;;;;;;5084342;28;20044;-85
2022/03/25 08:20:43;;;;;;;58.28;38.85;;;10.10;84.60;;;;;;5092762;28;20024;-85
2022/03/25 08:23:14;;;;;;;67.40;44.80;;;10.20;84.10;;;;;;5093342;28;20500;-85
2022/03/25 08:28:26;;;;;;;62.15;40.72;;;10.30;83.60;;;;;;5094431;28;20546;-85
2022/03/25 08:30:52;;;;;;;62.50;41.22;;;10.40;82.70;;;;;;5077322;28;20119;-85
2022/03/25 08:33:19;;;;;;;60.30;40.75;;;10.50;82.20;;;;;;5095324;28;20378;-85
2022/03/25 08:35:45;;;;;;;59.38;40.47;;;10.60;81.70;;;;;;5088059;28;20469;-85
2022/03/25 08:38:13;;;;;;;61.03;40.38;;;10.60;81.50;;;;;;5092649;28;20055;-85
2022/03/25 08:40:40;;;;;;;61.35;40.30;;;10.70;81.30;;;;;;5095131;28;20465;-86
2022/03/25 08:43:06;;;;;;;58.60;39.97;;;10.80;81.20;;;;;;5093785;28;20035;-85
2022/03/25 08:45:33;;;;;;;58.38;39.35;;;10.90;80.60;;;;;;5093714;28;20107;-86
2022/03/25 08:48:10;;;;;;;55.60;40.25;;;11.00;80.40;;;;;;5060426;28;20093;-86
2022/03/25 08:50:36;;;;;;;58.35;38.85;;;11.10;80.20;;;;;;5095669;28;20017;-91
2022/03/25 08:53:02;;;;;;;56.38;39.25;;;11.20;80.20;;;;;;5078150;28;20028;-91
2022/03/25 08:55:28;;;;;;;59.40;38.92;;;11.20;80.10;;;;;;5094780;28;20032;-91
2022/03/25 08:57:54;;;;;;;55.70;39.45;;;11.30;80.50;;;;;;5061429;28;20036;-91
2022/03/25 09:00:20;;;;;;;58.13;37.75;;;11.40;79.60;;;;;;5061346;28;20388;-90
2022/03/25 09:02:46;;;;;;;53.95;37.20;;;11.50;79.20;;;;;;5060800;28;20089;-90
2022/03/25 09:05:13;;;;;;;59.38;39.75;;;11.60;78.90;;;;;;5094701;28;20028;-90
2022/03/25 09:07:40;;;;;;;54.50;37.25;;;11.70;78.60;;;;;;5096342;28;20024;-91
2022/03/25 09:10:14;;;;;;;55.25;38.00;;;11.80;78.40;;;;;;5078710;28;20099;-91
2022/03/25 09:12:40;;;;;;;56.80;39.00;;;12.00;77.90;;;;;;5094738;28;20488;-91
2022/03/25 09:15:07;;;;;;;52.60;37.53;;;12.00;77.80;;;;;;5096196;28;20036;-91
2022/03/25 09:17:41;;;;;;;56.20;37.33;;;12.10;77.40;;;;;;5079077;28;20084;-91
2022/03/25 09:20:08;;;;;;;51.70;35.10;;;12.30;77.30;;;;;;5077788;28;20028;-91
2022/03/25 09:22:34;;;;;;;52.20;34.85;;;12.40;77.40;;;;;;5077686;28;20115;-91
2022/03/25 09:27:58;;;;;;;53.20;34.88;;;12.60;75.90;;;;;;5025458;28;20032;-91
2022/03/25 09:30:24;;;;;;;52.10;33.50;;;12.80;75.40;;;;;;5060794;28;20016;-92
2022/03/25 09:33:16;;;;;;;46.22;31.10;;;12.90;74.60;;;;;;5094657;28;20020;-91
2022/03/25 09:35:42;;;;;;;45.63;32.05;;;13.00;73.60;;;;;;5094042;28;20036;-91
2022/03/25 09:38:08;;;;;;;43.63;30.15;;;13.10;73.30;;;;;;5094045;28;20058;-91
2022/03/25 09:40:34;;;;;;;46.92;31.17;;;13.30;72.70;;;;;;5076597;28;20073;-91
2022/03/25 09:43:00;;;;;;;45.92;31.75;;;13.30;71.90;;;;;;5078358;28;20020;-92
2022/03/25 09:45:27;;;;;;;47.05;32.33;;;13.50;71.40;;;;;;5073890;28;20033;-92
2022/03/25 09:47:56;;;;;;;48.03;32.97;;;13.60;70.90;;;;;;5074908;28;20016;-91
2022/03/25 09:50:24;;;;;;;44.38;32.47;;;13.70;70.40;;;;;;5058470;28;20031;-91
2022/03/25 09:52:51;;;;;;;47.60;34.03;;;13.80;70.20;;;;;;5076892;28;20024;-91
2022/03/25 09:55:18;;;;;;;53.80;35.25;;;14.00;70.50;;;;;;5077082;28;20067;-91
2022/03/25 09:57:44;;;;;;;55.00;36.13;;;14.10;69.40;;;;;;5060653;28;20032;-91
2022/03/25 10:00:17;;;;;;;53.35;35.28;;;14.20;69.00;;;;;;5076861;28;20426;-92
2022/03/25 10:02:45;;;;;;;49.60;35.25;;;14.30;69.20;;;;;;5081381;28;20045;-91
2022/03/25 10:05:16;;;;;;;48.35;35.33;;;14.50;69.10;;;;;;5065951;28;20040;-91
2022/03/25 10:07:51;;;;;;;51.13;35.92;;;14.60;68.80;;;;;;5093481;28;20020;-91
2022/03/25 10:10:21;;;;;;;51.13;35.45;;;14.70;68.60;;;;;;5093506;28;20027;-91
2022/03/25 10:12:58;;;;;;;51.90;35.55;;;14.80;68.20;;;;;;5093449;28;20042;-90
2022/03/25 10:15:26;;;;;;;50.30;35.83;;;15.00;68.10;;;;;;5093590;28;20039;-91
2022/03/25 10:18:00;;;;;;;59.05;38.13;;;15.10;68.10;;;;;;5093622;28;20031;-91
2022/03/25 10:20:32;;;;;;;56.92;39.22;;;15.20;67.50;;;;;;5093458;28;20027;-91
2022/03/25 10:23:04;;;;;;;48.80;36.03;;;15.40;67.00;;;;;;5093268;28;20024;-91
2022/03/25 10:25:49;;;;;;;51.15;36.67;;;15.50;66.40;;;;;;5093376;28;20025;-90
2022/03/25 10:28:26;;;;;;;55.72;38.47;;;15.60;66.10;;;;;;5093318;28;20023;-92
2022/03/25 10:30:57;;;;;;;52.95;37.65;;;15.70;66.00;;;;;;5093083;28;20016;-91
2022/03/25 10:33:24;;;;;;;53.53;37.83;;;15.80;65.40;;;;;;5077217;28;20024;-91
2022/03/25 10:36:00;;;;;;;49.55;36.55;;;15.90;64.90;;;;;;5093265;28;20028;-90
2022/03/25 10:38:39;;;;;;;49.70;37.30;;;16.00;65.20;;;;;;5094220;28;20031;-93
2022/03/25 10:41:14;;;;;;;53.40;36.45;;;16.10;65.60;;;;;;5078646;28;20055;-92
2022/03/25 10:44:15;;;;;;;48.20;36.33;;;16.20;65.00;;;;;;5093064;28;20012;-93
2022/03/25 10:46:46;;;;;;;51.53;36.80;;;16.40;65.00;;;;;;4996185;28;20056;-93
2022/03/25 10:49:13;;;;;;;;;;;16.50;65.00;;;;;;5076802;28;20040;-93
2022/03/25 10:51:41;;;;;;;52.25;36.50;;;16.60;65.50;;;;;;5093090;28;19915;-91
2022/03/25 10:54:12;;;;;;;49.08;33.58;;;16.70;65.10;;;;;;5076416;28;20043;-91
2022/03/25 10:56:52;;;;;;;52.75;38.30;;;16.80;64.70;;;;;;5092977;28;20024;-91
2022/03/25 10:59:27;;;;;;;54.28;37.60;;;17.00;64.10;;;;;;5076241;28;20036;-91
2022/03/25 11:01:58;;;;;;;52.58;36.83;;;17.00;62.10;;;;;;5094886;28;20027;-91
2022/03/25 11:04:27;;;;;;;52.85;36.28;;;17.10;62.70;;;;;;5096572;28;20056;-91
2022/03/25 11:06:57;;;;;;;50.92;37.10;;;17.30;62.90;;;;;;5080761;28;20036;-90
2022/03/25 11:09:24;;;;;;;56.50;40.35;;;17.40;62.80;;;;;;5096845;28;20024;-90
2022/03/25 11:11:51;;;;;;;54.85;38.92;;;17.50;62.60;;;;;;5096783;28;20493;-90
2022/03/25 11:14:19;;;;;;;52.95;37.70;;;17.60;62.20;;;;;;5097390;28;20020;-90
2022/03/25 11:16:48;;;;;;;50.05;38.35;;;17.70;61.90;;;;;;5079890;28;20396;-90
2022/03/25 11:19:19;;;;;;;53.35;37.60;;;17.80;61.80;;;;;;5099198;28;20023;-90
2022/03/25 11:21:47;;;;;;;50.42;36.30;;;17.90;61.20;;;;;;5098494;28;20020;-90
2022/03/25 11:24:27;;;;;;;47.88;35.65;;;18.00;61.00;;;;;;5080112;28;20025;-86
2022/03/25 11:26:54;;;;;;;58.38;36.53;;;18.10;60.80;;;;;;5095589;28;20024;-86
2022/03/25 11:29:23;;;;;;;51.13;34.92;;;18.20;61.20;;;;;;5061972;28;20023;-86
2022/03/25 11:32:15;;;;;;;49.10;36.65;;;18.20;60.90;;;;;;5097184;28;20453;-85
2022/03/25 11:34:46;;;;;;;47.65;36.45;;;18.40;60.80;;;;;;5096500;28;20031;-85
2022/03/25 11:37:19;;;;;;;50.40;35.65;;;18.50;60.20;;;;;;5095237;28;20414;-86
2022/03/25 11:39:45;;;;;;;43.55;33.35;;;18.60;60.30;;;;;;5095218;28;20024;-85
2022/03/25 11:42:38;;;;;;;45.40;34.40;;;18.60;59.40;;;;;;5078202;28;20032;-86
2022/03/25 11:45:22;;;;;;;43.22;30.55;;;18.70;59.30;;;;;;5095046;28;20396;-86
2022/03/25 11:48:11;;;;;;;41.05;29.15;;;18.80;58.90;;;;;;5094857;28;20032;-86
2022/03/25 11:50:42;;;;;;;43.70;30.63;;;18.90;58.80;;;;;;5076923;28;20028;-88
2022/03/25 11:53:11;;;;;;;47.15;31.05;;;19.00;58.50;;;;;;5074366;28;20020;-88
2022/03/25 11:56:05;;;;;;;48.08;33.67;;;19.10;57.40;;;;;;5075708;28;20027;-89
2022/03/25 11:58:42;;;;;;;44.72;33.13;;;19.20;57.10;;;;;;5067885;28;20037;-87
2022/03/25 12:01:18;;;;;;;52.85;36.38;;;19.20;57.60;;;;;;5059201;28;20033;-89
2022/03/25 12:07:10;;;;;;;51.53;32.55;;;19.40;58.60;;;;;;5095611;28;20046;-88
2022/03/25 12:09:39;;;;;;;43.63;31.48;;;19.50;56.30;;;;;;5060839;28;20130;-88
2022/03/25 12:12:06;;;;;;;47.92;33.47;;;19.60;54.60;;;;;;5078356;28;20424;-88
2022/03/25 12:14:36;;;;;;;47.03;31.60;;;19.60;55.20;;;;;;5095545;28;20115;-89
2022/03/25 12:17:08;;;;;;;44.78;30.20;;;19.60;55.10;;;;;;5093505;28;20028;-89
2022/03/25 12:19:38;;;;;;;43.65;28.05;;;19.70;55.20;;;;;;5095397;28;20051;-90
2022/03/25 12:22:33;;;;;;;43.40;31.85;;;19.80;54.10;;;;;;5095530;28;20032;-91
2022/03/25 12:25:17;;;;;;;40.13;29.48;;;19.80;54.20;;;;;;5092867;28;20431;-88
2022/03/25 12:27:43;;;;;;;42.92;30.67;;;19.90;53.80;;;;;;5095169;28;20106;-89
2022/03/25 12:30:10;;;;;;;43.42;32.63;;;20.00;53.70;;;;;;5078268;28;20024;-89
2022/03/25 12:32:37;;;;;;;49.35;32.80;;;20.00;53.70;;;;;;5078495;28;20016;-89
2022/03/25 12:35:05;;;;;;;43.60;32.92;;;20.10;54.30;;;;;;5078571;28;20499;-88
2022/03/25 12:38:01;;;;;;;42.70;30.35;;;20.20;54.20;;;;;;5096890;28;20031;-87
2022/03/25 12:40:29;;;;;;;43.83;30.08;;;20.30;54.20;;;;;;5098788;28;20024;-87
2022/03/25 12:43:05;;;;;;;41.83;29.65;;;20.40;54.20;;;;;;5101753;28;20016;-87
2022/03/25 12:45:39;;;;;;;47.17;30.77;;;20.50;53.90;;;;;;5100588;28;20046;-87
2022/03/25 12:48:17;;;;;;;46.80;32.40;;;20.60;53.30;;;;;;5096368;28;20024;-87